Time;durP1;ratioP1;P1;durP2;ratioP2;P2;SDS_P1;SDS_P2;PMS_P1;PMS_P2;Temp;Humidity;BMP_temperature;BMP_pressure;BME280_temperature;BME280_humidity;BME280_pressure;Samples;Min_cycle;Max_cycle;Signal;HPM_P1;HPM_P2
2024/01/07 00:01:57;;;;;;;1.30;0.87;;;-0.30;99.90;;;;;;5094782;28;20060;-87
2024/01/07 00:04:23;;;;;;;1.60;1.13;;;-0.30;99.90;;;;;;5072528;28;20362;-87
2024/01/07 00:06:49;;;;;;;0.43;0.43;;;-0.30;99.90;;;;;;5066473;28;20672;-86
2024/01/07 00:09:15;;;;;;;1.77;1.35;;;-0.30;99.90;;;;;;5092572;28;20321;-87
2024/01/07 00:11:41;;;;;;;0.73;0.73;;;-0.30;99.90;;;;;;5065454;28;20247;-86
2024/01/07 00:14:06;;;;;;;1.30;0.73;;;-0.30;99.90;;;;;;5062792;28;20124;-87
2024/01/07 00:16:32;;;;;;;2.70;1.17;;;-0.30;99.00;;;;;;5057641;28;20201;-87
2024/01/07 00:18:58;;;;;;;0.93;0.93;;;-0.30;21.90;;;;;;5065161;28;20044;-86
2024/01/07 00:21:24;;;;;;;0.00;0.00;;;-0.40;1.00;;;;;;5093345;28;20119;-87
2024/01/07 00:23:50;;;;;;;1.13;0.60;;;-0.30;1.00;;;;;;5071778;28;20657;-87
2024/01/07 00:26:15;;;;;;;0.50;0.50;;;-0.40;1.00;;;;;;5098176;28;20044;-87
2024/01/07 00:28:41;;;;;;;0.30;0.30;;;-0.30;99.90;;;;;;5090261;28;20040;-86
2024/01/07 00:31:09;;;;;;;0.10;0.10;;;-0.30;99.90;;;;;;5065047;28;20146;-86
2024/01/07 00:33:37;;;;;;;0.10;0.10;;;-0.30;99.90;;;;;;5091989;28;20118;-87
2024/01/07 00:36:03;;;;;;;0.23;0.23;;;-0.30;99.90;;;;;;5046154;28;20048;-87
2024/01/07 00:38:28;;;;;;;0.67;0.60;;;-0.30;99.90;;;;;;5062144;28;20055;-87
2024/01/07 00:40:54;;;;;;;0.60;0.60;;;-0.30;99.90;;;;;;5050191;28;20036;-86
2024/01/07 00:43:19;;;;;;;1.48;0.70;;;-0.30;1.00;;;;;;5085264;28;20051;-87
2024/01/07 00:45:45;;;;;;;0.00;0.00;;;-0.30;1.00;;;;;;5052808;28;20131;-87
2024/01/07 00:48:11;;;;;;;0.10;0.10;;;-0.30;99.90;;;;;;5072735;28;20504;-87
2024/01/07 00:50:36;;;;;;;0.00;0.00;;;-0.30;99.90;;;;;;5092295;28;20505;-87
2024/01/07 00:53:02;;;;;;;0.10;0.10;;;-0.30;99.90;;;;;;5093897;28;20146;-87
2024/01/07 00:55:27;;;;;;;0.30;0.30;;;-0.30;99.90;;;;;;5087931;28;20044;-87
2024/01/07 00:57:53;;;;;;;0.40;0.40;;;-0.30;99.90;;;;;;5086189;28;20048;-87
2024/01/07 01:00:19;;;;;;;0.00;0.00;;;-0.30;99.90;;;;;;5075981;28;20123;-86
2024/01/07 01:02:45;;;;;;;0.10;0.10;;;-0.30;99.90;;;;;;5099591;28;20115;-86
2024/01/07 01:05:11;;;;;;;0.57;0.57;;;-0.40;99.90;;;;;;5102926;28;20054;-86
2024/01/07 01:07:36;;;;;;;2.23;1.13;;;0.50;99.90;;;;;;5094307;28;20044;-86
2024/01/07 01:10:02;;;;;;;0.30;0.30;;;-0.40;99.90;;;;;;5068581;28;20040;-87
2024/01/07 01:12:28;;;;;;;0.83;0.80;;;-0.40;99.90;;;;;;5072090;28;20117;-87
2024/01/07 01:14:54;;;;;;;0.53;0.53;;;-0.40;99.90;;;;;;5098864;28;20055;-86
2024/01/07 01:17:20;;;;;;;0.35;0.35;;;-0.40;99.90;;;;;;5089267;28;20572;-86
2024/01/07 01:19:45;;;;;;;0.37;0.37;;;-0.40;99.90;;;;;;5097852;28;20127;-87
2024/01/07 01:22:11;;;;;;;0.67;0.67;;;0.20;99.90;;;;;;5088528;28;20052;-86
2024/01/07 01:24:37;;;;;;;0.32;0.32;;;-0.40;99.90;;;;;;5081713;28;20517;-87
2024/01/07 01:27:03;;;;;;;0.10;0.10;;;-0.40;99.90;;;;;;5089186;28;20098;-86
2024/01/07 01:29:28;;;;;;;0.50;0.50;;;-0.40;99.90;;;;;;5091861;28;20044;-87
2024/01/07 01:31:54;;;;;;;0.00;0.00;;;-0.40;39.30;;;;;;5067969;28;20457;-87
2024/01/07 01:34:19;;;;;;;0.00;0.00;;;-0.50;1.00;;;;;;5060300;28;20374;-87
2024/01/07 01:36:45;;;;;;;24.80;2.53;;;-0.40;1.00;;;;;;5070206;28;20045;-86
2024/01/07 01:39:11;;;;;;;0.33;0.33;;;-0.50;1.00;;;;;;5100601;28;20040;-86
2024/01/07 01:41:36;;;;;;;0.43;0.43;;;0.40;1.00;;;;;;5102486;28;20140;-86
2024/01/07 01:44:02;;;;;;;0.40;0.40;;;-0.50;99.90;;;;;;5065370;28;20229;-87
2024/01/07 01:46:29;;;;;;;0.65;0.65;;;-0.50;99.90;;;;;;5063307;28;20159;-86
2024/01/07 01:48:55;;;;;;;0.50;0.40;;;-0.50;99.90;;;;;;5096586;28;20130;-86
2024/01/07 01:51:22;;;;;;;0.00;0.00;;;-0.50;86.70;;;;;;5072810;28;20055;-86
2024/01/07 01:53:50;;;;;;;0.00;0.00;;;-0.50;45.30;;;;;;5066460;28;20052;-87
2024/01/07 01:56:18;;;;;;;2.80;0.93;;;-0.40;94.70;;;;;;5061961;28;20048;-86
2024/01/07 01:58:44;;;;;;;0.75;0.75;;;-0.50;61.90;;;;;;5066479;28;20056;-86
2024/01/07 02:01:10;;;;;;;0.60;0.60;;;-0.50;81.00;;;;;;5070399;28;20085;-87
2024/01/07 02:03:36;;;;;;;0.17;0.17;;;-0.50;36.40;;;;;;5094427;28;20614;-86
2024/01/07 02:06:02;;;;;;;1.00;0.45;;;-0.50;8.70;;;;;;5095001;28;20051;-87
2024/01/07 02:08:29;;;;;;;0.07;0.07;;;-0.50;1.00;;;;;;5093507;28;20044;-87
2024/01/07 02:10:54;;;;;;;0.10;0.10;;;-0.50;14.20;;;;;;5086200;28;20059;-86
2024/01/07 02:13:20;;;;;;;0.00;0.00;;;-0.50;1.00;;;;;;5084809;28;20131;-87
2024/01/07 02:15:46;;;;;;;1.00;0.75;;;-0.50;1.00;;;;;;5091896;28;20044;-87
2024/01/07 02:18:12;;;;;;;0.00;0.00;;;-0.50;1.00;;;;;;5093488;28;20039;-86
2024/01/07 02:20:38;;;;;;;0.05;0.05;;;-0.50;1.00;;;;;;5091870;28;20036;-86
2024/01/07 02:23:04;;;;;;;0.20;0.20;;;-0.50;1.00;;;;;;5062506;28;20098;-86
2024/01/07 02:25:34;;;;;;;0.00;0.00;;;-0.50;1.00;;;;;;5093587;28;20040;-86
2024/01/07 02:27:59;;;;;;;0.20;0.20;;;-0.50;1.00;;;;;;5090399;28;20126;-86
2024/01/07 02:30:27;;;;;;;0.00;0.00;;;-0.50;1.00;;;;;;5093668;28;20770;-87
2024/01/07 02:32:52;;;;;;;1.80;0.93;;;-0.50;1.00;;;;;;5073816;28;20078;-86
2024/01/07 02:35:18;;;;;;;2.75;0.55;;;-0.50;99.90;;;;;;5100415;28;20564;-86
2024/01/07 02:37:43;;;;;;;0.90;0.85;;;-0.50;99.90;;;;;;5087905;28;20052;-87
2024/01/07 02:40:10;;;;;;;0.00;0.00;;;-0.60;99.90;;;;;;5080303;28;20047;-87
2024/01/07 02:42:35;;;;;;;0.00;0.00;;;-0.60;99.90;;;;;;5092501;28;20502;-87
2024/01/07 02:45:01;;;;;;;0.00;0.00;;;-0.60;99.90;;;;;;5097072;28;20563;-87
2024/01/07 02:47:27;;;;;;;0.20;0.20;;;-0.40;99.90;;;;;;5077137;28;20569;-87
2024/01/07 02:49:52;;;;;;;0.33;0.33;;;-0.60;99.90;;;;;;5094360;28;20045;-86
2024/01/07 02:52:18;;;;;;;0.10;0.10;;;-0.60;51.80;;;;;;5098107;28;20051;-86
2024/01/07 02:54:43;;;;;;;1.23;0.67;;;-0.60;1.00;;;;;;5067673;28;20054;-87
2024/01/07 02:57:09;;;;;;;0.10;0.10;;;-0.60;1.00;;;;;;5057301;28;20044;-86
2024/01/07 02:59:35;;;;;;;0.00;0.00;;;-0.60;1.00;;;;;;5048458;28;20059;-86
2024/01/07 03:02:00;;;;;;;0.00;0.00;;;-0.60;1.00;;;;;;5066635;28;20052;-86
2024/01/07 03:04:26;;;;;;;0.00;0.00;;;-0.60;99.90;;;;;;5055451;28;20135;-87
2024/01/07 03:06:51;;;;;;;0.67;0.67;;;-0.60;1.00;;;;;;5038053;28;20147;-86
2024/01/07 03:09:17;;;;;;;0.93;0.63;;;0.50;1.00;;;;;;5064821;28;20083;-86
2024/01/07 03:11:43;;;;;;;0.35;0.35;;;-0.60;1.00;;;;;;5093412;28;20648;-86
2024/01/07 03:14:09;;;;;;;0.00;0.00;;;-0.60;99.90;;;;;;5062371;28;20036;-86
2024/01/07 03:16:35;;;;;;;1.17;0.63;;;-0.60;99.90;;;;;;5060255;28;20043;-86
2024/01/07 03:19:02;;;;;;;1.43;1.33;;;-0.60;99.90;;;;;;5091790;28;20104;-86
2024/01/07 03:21:27;;;;;;;0.20;0.20;;;-0.60;67.20;;;;;;5093378;28;20060;-86
2024/01/07 03:23:53;;;;;;;0.63;0.63;;;-0.60;1.00;;;;;;5089286;28;20044;-86
2024/01/07 03:26:20;;;;;;;0.10;0.10;;;-0.60;1.00;;;;;;5088141;28;20047;-86
2024/01/07 03:28:46;;;;;;;0.13;0.13;;;-0.60;99.90;;;;;;5094814;28;20039;-87
2024/01/07 03:31:14;;;;;;;0.60;0.45;;;-0.60;99.90;;;;;;5051321;28;20081;-87
2024/01/07 03:33:40;;;;;;;0.00;0.00;;;-0.70;99.90;;;;;;5093604;28;20054;-87
2024/01/07 03:36:11;;;;;;;0.20;0.20;;;-0.70;99.90;;;;;;5066096;28;20127;-87
2024/01/07 03:38:37;;;;;;;0.07;0.07;;;-0.70;99.90;;;;;;5091261;28;20044;-87
2024/01/07 03:41:03;;;;;;;0.10;0.10;;;-0.70;99.90;;;;;;5068223;28;20139;-86
2024/01/07 03:43:29;;;;;;;0.53;0.53;;;-0.70;1.00;;;;;;5093974;28;20574;-86
2024/01/07 03:45:55;;;;;;;5.93;2.30;;;-0.70;99.90;;;;;;5091900;28;20078;-86
2024/01/07 03:48:20;;;;;;;0.00;0.00;;;-0.70;99.90;;;;;;5067466;28;20135;-86
2024/01/07 03:50:46;;;;;;;0.00;0.00;;;-0.70;99.90;;;;;;5071568;28;20083;-86
2024/01/07 03:53:12;;;;;;;0.53;0.53;;;-0.70;99.90;;;;;;5063638;28;20117;-87
2024/01/07 03:55:38;;;;;;;0.10;0.10;;;-0.80;99.90;;;;;;5088878;28;20801;-86
2024/01/07 03:58:05;;;;;;;1.17;1.13;;;-0.80;1.00;;;;;;5080102;28;20086;-86
2024/01/07 04:00:31;;;;;;;0.00;0.00;;;-0.70;11.90;;;;;;5064207;28;20047;-86
2024/01/07 04:02:57;;;;;;;0.70;0.60;;;-0.30;99.90;;;;;;5064604;28;20064;-86
2024/01/07 04:05:22;;;;;;;0.00;0.00;;;-0.70;99.90;;;;;;5063954;28;20047;-87
2024/01/07 04:07:48;;;;;;;0.10;0.10;;;-0.70;99.90;;;;;;5092271;28;20052;-87
2024/01/07 04:10:18;;;;;;;0.23;0.23;;;-0.70;1.00;;;;;;5070883;28;20048;-86
2024/01/07 04:12:44;;;;;;;0.10;0.10;;;-0.70;1.00;;;;;;5064370;28;20050;-86
2024/01/07 04:15:11;;;;;;;0.20;0.20;;;-0.70;1.00;;;;;;5071610;28;20094;-86
2024/01/07 04:17:37;;;;;;;1.33;1.13;;;-0.70;1.00;;;;;;5098332;28;20396;-86
2024/01/07 04:20:03;;;;;;;0.30;0.30;;;-0.70;99.90;;;;;;5082239;28;20051;-86
2024/01/07 04:22:29;;;;;;;0.55;0.55;;;-0.70;99.90;;;;;;5089851;28;20386;-86
2024/01/07 04:24:54;;;;;;;0.30;0.30;;;-0.70;99.90;;;;;;5044557;28;20063;-86
2024/01/07 04:27:20;;;;;;;0.00;0.00;;;-0.70;99.90;;;;;;5055932;28;20047;-86
2024/01/07 04:29:45;;;;;;;0.00;0.00;;;-0.70;1.00;;;;;;5090718;28;20097;-86
2024/01/07 04:32:11;;;;;;;0.00;0.00;;;-0.60;99.90;;;;;;5065442;28;20134;-86
2024/01/07 04:34:37;;;;;;;0.00;0.00;;;-0.60;37.20;;;;;;5092861;28;20075;-86
2024/01/07 04:37:02;;;;;;;0.07;0.07;;;-0.60;1.00;;;;;;5091715;28;20044;-86
2024/01/07 04:39:28;;;;;;;0.10;0.10;;;-0.60;99.90;;;;;;5093892;28;20043;-86
2024/01/07 04:41:54;;;;;;;0.00;0.00;;;-0.70;1.00;;;;;;5092885;28;20046;-86
2024/01/07 04:44:19;;;;;;;0.20;0.20;;;-0.70;99.90;;;;;;5085033;28;20080;-86
2024/01/07 04:46:45;;;;;;;1.50;1.13;;;-0.70;99.90;;;;;;5094304;28;20523;-86
2024/01/07 04:49:11;;;;;;;2.63;0.77;;;-0.70;1.00;;;;;;5090350;28;20127;-86
2024/01/07 04:51:36;;;;;;;2.25;1.17;;;-0.70;99.90;;;;;;5065791;28;20048;-86
2024/01/07 04:54:02;;;;;;;0.10;0.10;;;-0.70;99.90;;;;;;5092651;28;20082;-87
2024/01/07 04:56:28;;;;;;;0.47;0.47;;;-0.70;99.90;;;;;;5058473;28;20091;-86
2024/01/07 04:58:53;;;;;;;0.20;0.20;;;-0.70;99.90;;;;;;5048877;28;20086;-86
2024/01/07 05:01:19;;;;;;;0.00;0.00;;;-0.70;1.00;;;;;;5050936;28;20083;-86
2024/01/07 05:03:45;;;;;;;0.03;0.03;;;-0.60;99.90;;;;;;5055372;28;20056;-87
2024/01/07 05:06:11;;;;;;;0.00;0.00;;;-0.70;99.90;;;;;;5068894;28;20088;-86
2024/01/07 05:08:40;;;;;;;0.10;0.10;;;-0.70;99.90;;;;;;5098472;28;20582;-86
2024/01/07 05:11:07;;;;;;;0.00;0.00;;;-0.70;99.90;;;;;;5093661;28;20039;-86
2024/01/07 05:13:34;;;;;;;0.00;0.00;;;-0.70;99.90;;;;;;5093130;28;20097;-87
2024/01/07 05:16:00;;;;;;;0.00;0.00;;;-0.70;25.10;;;;;;5072260;28;20098;-86
2024/01/07 05:18:25;;;;;;;0.00;0.00;;;-0.70;1.00;;;;;;5083929;28;20056;-86
2024/01/07 05:20:51;;;;;;;0.63;0.63;;;-0.70;1.00;;;;;;5063354;28;20520;-86
2024/01/07 05:23:17;;;;;;;0.00;0.00;;;-0.70;1.00;;;;;;5064254;28;20106;-86
2024/01/07 05:25:44;;;;;;;0.00;0.00;;;0.20;1.00;;;;;;5094635;28;20039;-86
2024/01/07 05:28:10;;;;;;;0.20;0.20;;;-0.70;1.00;;;;;;5066467;28;20135;-86
2024/01/07 05:30:36;;;;;;;0.00;0.00;;;-0.60;1.00;;;;;;5093310;28;20047;-87
2024/01/07 05:33:02;;;;;;;0.05;0.05;;;-0.60;99.90;;;;;;5092807;28;20043;-87
2024/01/07 05:35:27;;;;;;;0.00;0.00;;;-0.60;99.90;;;;;;5095401;28;20586;-86
2024/01/07 05:37:53;;;;;;;0.00;0.00;;;-0.70;99.90;;;;;;5088180;28;20087;-86
2024/01/07 05:40:19;;;;;;;0.00;0.00;;;-0.60;99.90;;;;;;5075087;28;20468;-86
2024/01/07 05:42:44;;;;;;;0.10;0.10;;;-0.60;1.00;;;;;;5070481;28;20393;-86
2024/01/07 05:45:10;;;;;;;0.00;0.00;;;-0.60;99.90;;;;;;5090019;28;20047;-87
2024/01/07 05:47:36;;;;;;;0.10;0.10;;;-0.60;99.90;;;;;;5087084;28;20134;-86
2024/01/07 05:50:02;;;;;;;0.00;0.00;;;-0.60;99.90;;;;;;5097945;28;20629;-87
2024/01/07 05:52:27;;;;;;;0.10;0.10;;;-0.60;99.90;;;;;;5069785;28;20059;-86
2024/01/07 05:54:53;;;;;;;1.00;0.87;;;-0.60;99.90;;;;;;5055967;28;20044;-86
2024/01/07 05:57:19;;;;;;;0.00;0.00;;;-0.60;99.90;;;;;;5065736;28;20052;-86
2024/01/07 05:59:45;;;;;;;0.33;0.33;;;-0.60;99.90;;;;;;5067093;28;20070;-86
2024/01/07 06:02:12;;;;;;;0.15;0.15;;;-0.60;99.90;;;;;;5093782;28;20040;-86
2024/01/07 06:04:38;;;;;;;0.00;0.00;;;-0.60;99.90;;;;;;5102046;28;20067;-86
2024/01/07 06:07:04;;;;;;;0.00;0.00;;;-0.60;99.90;;;;;;5066246;28;20139;-86
2024/01/07 06:09:29;;;;;;;0.00;0.00;;;-0.60;99.90;;;;;;5066001;28;20123;-86
2024/01/07 06:11:55;;;;;;;0.00;0.00;;;-0.60;99.90;;;;;;5068380;28;20059;-86
2024/01/07 06:14:22;;;;;;;0.60;0.40;;;-0.50;99.90;;;;;;5096160;28;20044;-86
2024/01/07 06:16:48;;;;;;;0.30;0.30;;;-0.60;99.90;;;;;;5090716;28;20040;-86
2024/01/07 06:19:16;;;;;;;0.00;0.00;;;-0.60;99.90;;;;;;5066103;28;20463;-86
2024/01/07 06:21:42;;;;;;;0.00;0.00;;;-0.60;99.90;;;;;;5066376;28;20040;-86
2024/01/07 06:24:08;;;;;;;0.00;0.00;;;-0.50;99.90;;;;;;5057388;28;20051;-86
2024/01/07 06:26:34;;;;;;;0.00;0.00;;;-0.50;99.90;;;;;;5089687;28;20050;-86
2024/01/07 06:29:00;;;;;;;0.30;0.30;;;-0.50;99.90;;;;;;5066561;28;20126;-87
2024/01/07 06:31:25;;;;;;;0.00;0.00;;;-0.60;99.90;;;;;;5082773;28;20131;-86
2024/01/07 06:33:51;;;;;;;0.17;0.17;;;-0.60;99.90;;;;;;5065790;28;20044;-86
2024/01/07 06:36:17;;;;;;;0.40;0.40;;;-0.50;53.20;;;;;;5066473;28;20058;-87
2024/01/07 06:38:50;;;;;;;0.10;0.10;;;-0.50;86.80;;;;;;5095552;28;20032;-86
2024/01/07 06:41:16;;;;;;;0.27;0.27;;;-0.50;1.00;;;;;;5094643;28;20071;-87
2024/01/07 06:43:41;;;;;;;0.10;0.10;;;-0.60;53.00;;;;;;5065545;28;20068;-86
2024/01/07 06:46:07;;;;;;;0.00;0.00;;;-0.60;68.80;;;;;;5089984;28;20105;-86
2024/01/07 06:48:32;;;;;;;0.00;0.00;;;-0.60;8.70;;;;;;5091379;28;20138;-86
2024/01/07 06:50:58;;;;;;;1.90;0.60;;;-0.60;13.20;;;;;;5060975;28;20044;-86
2024/01/07 06:53:24;;;;;;;1.27;1.17;;;-0.60;21.60;;;;;;5092574;28;20070;-87
2024/01/07 06:55:49;;;;;;;0.20;0.20;;;-0.60;1.00;;;;;;5094373;28;20511;-86
2024/01/07 06:58:15;;;;;;;0.10;0.10;;;-0.60;1.00;;;;;;5095256;28;20051;-86
2024/01/07 07:00:41;;;;;;;0.00;0.00;;;-0.60;1.00;;;;;;5086140;28;20040;-86
2024/01/07 07:03:07;;;;;;;0.00;0.00;;;-0.70;1.00;;;;;;5098535;28;20058;-86
2024/01/07 07:05:33;;;;;;;0.93;0.90;;;-0.70;1.00;;;;;;5061251;28;20865;-86
2024/01/07 07:07:59;;;;;;;0.00;0.00;;;-0.70;1.00;;;;;;5091742;28;20448;-87
2024/01/07 07:10:25;;;;;;;0.00;0.00;;;-0.70;1.00;;;;;;5064947;28;20538;-86
2024/01/07 07:12:51;;;;;;;0.45;0.45;;;-0.70;1.00;;;;;;5063937;28;20105;-86
2024/01/07 07:15:17;;;;;;;0.00;0.00;;;-0.70;1.00;;;;;;5092375;28;20094;-86
2024/01/07 07:17:43;;;;;;;0.00;0.00;;;-0.70;1.00;;;;;;5075232;28;20083;-86
2024/01/07 07:20:09;;;;;;;0.00;0.00;;;-0.70;1.00;;;;;;5059761;28;20467;-86
2024/01/07 07:22:35;;;;;;;0.00;0.00;;;-0.70;1.00;;;;;;5082287;28;20170;-86
2024/01/07 07:25:02;;;;;;;0.00;0.00;;;-0.70;1.00;;;;;;5090978;28;20063;-86
2024/01/07 07:27:27;;;;;;;0.00;0.00;;;-0.20;1.00;;;;;;5048221;28;20071;-86
2024/01/07 07:29:53;;;;;;;0.10;0.10;;;-0.90;1.00;;;;;;5099197;28;20508;-86
2024/01/07 07:32:18;;;;;;;0.68;0.68;;;-0.90;1.00;;;;;;5090996;28;20039;-87
2024/01/07 07:34:44;;;;;;;0.00;0.00;;;-1.00;1.00;;;;;;5097676;28;20047;-86
2024/01/07 07:37:10;;;;;;;0.00;0.00;;;-1.10;1.00;;;;;;5066408;28;20044;-86
2024/01/07 07:39:35;;;;;;;0.00;0.00;;;-1.20;1.00;;;;;;5064305;28;20097;-86
2024/01/07 07:42:01;;;;;;;0.15;0.15;;;-1.30;1.00;;;;;;5064483;28;20044;-86
2024/01/07 07:44:26;;;;;;;0.00;0.00;;;-1.30;1.00;;;;;;5093098;28;20040;-86
2024/01/07 07:46:52;;;;;;;0.10;0.10;;;-1.30;1.00;;;;;;5096232;28;20044;-86
2024/01/07 07:49:18;;;;;;;0.30;0.30;;;-1.40;1.00;;;;;;5064742;28;20048;-86
2024/01/07 07:51:43;;;;;;;0.80;0.80;;;-1.40;1.00;;;;;;5095050;28;20450;-86
2024/01/07 07:54:09;;;;;;;0.13;0.10;;;-1.50;1.00;;;;;;5079308;28;20040;-86
2024/01/07 07:56:35;;;;;;;0.00;0.00;;;-1.50;1.00;;;;;;5066435;28;20620;-86
2024/01/07 07:59:02;;;;;;;0.00;0.00;;;-1.60;1.00;;;;;;5078981;28;20075;-86
2024/01/07 08:01:28;;;;;;;0.00;0.00;;;-1.60;1.00;;;;;;5077888;28;20091;-86
2024/01/07 08:03:53;;;;;;;0.75;0.75;;;-1.60;1.00;;;;;;5088258;28;20059;-86
2024/01/07 08:06:19;;;;;;;0.03;0.03;;;-1.60;1.00;;;;;;5054046;28;20056;-86
2024/01/07 08:08:45;;;;;;;0.00;0.00;;;-1.50;1.00;;;;;;5079730;28;20044;-86
2024/01/07 08:11:10;;;;;;;0.00;0.00;;;-1.50;1.00;;;;;;5090868;28;20126;-86
2024/01/07 08:13:37;;;;;;;0.00;0.00;;;-1.50;1.00;;;;;;5085828;28;20131;-86
2024/01/07 08:16:04;;;;;;;0.00;0.00;;;-1.60;1.00;;;;;;5082036;28;20467;-86
2024/01/07 08:18:29;;;;;;;0.00;0.00;;;-1.60;1.00;;;;;;5076955;28;20471;-86
2024/01/07 08:20:55;;;;;;;0.00;0.00;;;-1.60;1.00;;;;;;5090221;28;20560;-86
2024/01/07 08:23:21;;;;;;;0.03;0.03;;;-1.60;1.00;;;;;;5058317;28;20063;-86
2024/01/07 08:25:46;;;;;;;0.10;0.10;;;-1.60;1.00;;;;;;5083198;28;20093;-86
2024/01/07 08:28:12;;;;;;;1.27;1.20;;;-1.50;1.00;;;;;;5096581;28;20043;-86
2024/01/07 08:30:38;;;;;;;0.00;0.00;;;-1.40;1.00;;;;;;5045225;28;20387;-86
2024/01/07 08:33:03;;;;;;;0.30;0.30;;;-1.10;99.90;;;;;;5079434;28;20155;-86
2024/01/07 08:35:29;;;;;;;0.65;0.65;;;-1.00;99.90;;;;;;5043792;28;20524;-86
2024/01/07 08:37:55;;;;;;;0.00;0.00;;;-0.90;99.90;;;;;;5036433;28;20522;-86
2024/01/07 08:40:20;;;;;;;0.90;0.90;;;-0.80;99.90;;;;;;5057564;28;20049;-86
2024/01/07 08:42:46;;;;;;;0.00;0.00;;;-0.80;99.90;;;;;;5079085;28;20046;-86
2024/01/07 08:45:12;;;;;;;0.10;0.10;;;-0.70;1.00;;;;;;5054925;28;20109;-86
2024/01/07 08:47:39;;;;;;;2.00;1.03;;;-0.70;99.90;;;;;;5090322;28;20436;-86
2024/01/07 08:50:05;;;;;;;0.10;0.10;;;-0.60;99.90;;;;;;5049309;28;20040;-86
2024/01/07 08:52:31;;;;;;;0.00;0.00;;;-0.60;99.90;;;;;;5086836;28;20101;-86
2024/01/07 08:54:56;;;;;;;0.00;0.00;;;-0.60;99.90;;;;;;5091544;28;20051;-86
2024/01/07 08:57:22;;;;;;;4.17;1.57;;;-0.50;99.90;;;;;;5087861;28;20096;-86
2024/01/07 08:59:48;;;;;;;0.00;0.00;;;-0.50;99.90;;;;;;5088104;28;20489;-86
2024/01/07 09:02:13;;;;;;;0.00;0.00;;;-0.50;99.90;;;;;;5058345;28;20505;-86
2024/01/07 09:04:39;;;;;;;0.17;0.17;;;-0.50;99.90;;;;;;5056945;28;20117;-86
2024/01/07 09:07:05;;;;;;;0.20;0.20;;;-0.40;99.90;;;;;;5066792;28;20056;-86
2024/01/07 09:09:30;;;;;;;0.00;0.00;;;-0.40;99.90;;;;;;5075573;28;20131;-86
2024/01/07 09:11:57;;;;;;;0.10;0.10;;;-0.30;99.90;;;;;;5070679;28;20187;-86
2024/01/07 09:14:25;;;;;;;0.70;0.70;;;-0.30;99.90;;;;;;5057328;28;20541;-86
2024/01/07 09:16:50;;;;;;;0.47;0.47;;;-0.30;99.90;;;;;;5050871;28;20061;-86
2024/01/07 09:19:17;;;;;;;0.00;0.00;;;-0.30;99.90;;;;;;5066081;28;20048;-86
2024/01/07 09:21:43;;;;;;;0.20;0.20;;;-0.30;99.90;;;;;;5061458;28;20109;-86
2024/01/07 09:24:09;;;;;;;0.10;0.10;;;0.20;99.90;;;;;;5063793;28;20060;-86
2024/01/07 09:26:35;;;;;;;0.08;0.08;;;-0.30;99.90;;;;;;5069176;28;20043;-86
2024/01/07 09:29:01;;;;;;;0.00;0.00;;;-0.30;1.00;;;;;;5074076;28;20040;-86
2024/01/07 09:31:27;;;;;;;0.00;0.00;;;-0.30;99.90;;;;;;5061488;28;20052;-86
2024/01/07 09:33:52;;;;;;;0.00;0.00;;;-0.20;99.90;;;;;;5046597;28;20048;-86
2024/01/07 09:36:18;;;;;;;0.00;0.00;;;-0.20;99.90;;;;;;5045163;28;20052;-86
2024/01/07 09:38:44;;;;;;;0.10;0.10;;;-0.10;99.90;;;;;;5067278;28;20508;-86
2024/01/07 09:41:09;;;;;;;0.00;0.00;;;0.00;99.90;;;;;;5060532;28;20067;-86
2024/01/07 09:43:35;;;;;;;0.00;0.00;;;0.00;99.90;;;;;;5052862;28;20040;-86
2024/01/07 09:46:02;;;;;;;0.00;0.00;;;0.10;99.90;;;;;;5066152;28;20098;-85
2024/01/07 09:48:28;;;;;;;0.05;0.05;;;0.20;99.90;;;;;;5071632;28;20137;-86
2024/01/07 09:50:56;;;;;;;0.00;0.00;;;0.20;99.90;;;;;;5078037;28;20146;-86
2024/01/07 09:53:25;;;;;;;0.10;0.10;;;0.20;99.90;;;;;;5071646;28;20094;-86
2024/01/07 09:56:02;;;;;;;0.52;0.52;;;0.40;99.90;;;;;;5075209;28;20063;-86
2024/01/07 09:58:28;;;;;;;0.08;0.08;;;0.40;99.90;;;;;;5059959;28;20077;-86
2024/01/07 10:00:54;;;;;;;0.00;0.00;;;0.40;99.90;;;;;;5061670;28;20051;-86
2024/01/07 10:03:20;;;;;;;0.00;0.00;;;0.40;99.90;;;;;;5062056;28;20166;-86
2024/01/07 10:05:46;;;;;;;0.13;0.13;;;0.40;99.90;;;;;;5063268;28;20044;-86
2024/01/07 10:08:11;;;;;;;0.00;0.00;;;0.40;99.90;;;;;;5078074;28;20044;-86
2024/01/07 10:10:38;;;;;;;0.00;0.00;;;0.40;99.90;;;;;;5066143;28;20490;-86
2024/01/07 10:13:03;;;;;;;0.13;0.13;;;0.50;99.90;;;;;;5072173;28;20053;-86
2024/01/07 10:15:29;;;;;;;0.20;0.20;;;0.50;99.90;;;;;;5072642;28;20040;-86
2024/01/07 10:18:02;;;;;;;0.43;0.43;;;0.50;99.90;;;;;;5062462;28;20079;-86
2024/01/07 10:20:28;;;;;;;0.00;0.00;;;0.50;99.90;;;;;;5078929;28;20048;-86
2024/01/07 10:22:54;;;;;;;0.00;0.00;;;0.60;99.90;;;;;;5059245;28;20067;-86
2024/01/07 10:25:20;;;;;;;0.15;0.15;;;0.60;99.90;;;;;;5071806;28;20105;-86
2024/01/07 10:27:46;;;;;;;0.00;0.00;;;0.60;99.90;;;;;;5067988;28;20044;-86
2024/01/07 10:30:12;;;;;;;0.00;0.00;;;0.70;99.90;;;;;;5070644;28;20040;-86
2024/01/07 10:32:38;;;;;;;0.00;0.00;;;0.70;99.90;;;;;;5060268;28;20048;-86
2024/01/07 10:35:07;;;;;;;0.38;0.22;;;0.80;99.90;;;;;;5060732;28;20045;-87
2024/01/07 10:37:33;;;;;;;0.00;0.00;;;0.90;99.90;;;;;;5073303;28;20050;-86
2024/01/07 10:40:03;;;;;;;0.00;0.00;;;1.00;99.90;;;;;;5075221;28;20036;-86
2024/01/07 10:42:33;;;;;;;0.30;0.30;;;1.00;99.90;;;;;;5063550;28;20048;-86
2024/01/07 10:45:02;;;;;;;0.00;0.00;;;0.90;99.90;;;;;;5075245;28;20048;-86
2024/01/07 10:47:31;;;;;;;0.00;0.00;;;0.90;99.90;;;;;;5063703;28;20048;-86
2024/01/07 10:49:59;;;;;;;0.00;0.00;;;0.90;99.90;;;;;;5069888;28;20174;-87
2024/01/07 10:52:27;;;;;;;0.00;0.00;;;0.90;99.90;;;;;;5073049;28;20059;-86
2024/01/07 10:54:56;;;;;;;0.00;0.00;;;0.90;99.90;;;;;;5075199;28;20432;-86
2024/01/07 10:57:38;;;;;;;0.00;0.00;;;0.90;99.90;;;;;;5075353;28;20052;-86
2024/01/07 11:00:08;;;;;;;0.00;0.00;;;1.10;99.90;;;;;;5043553;28;20052;-86
2024/01/07 11:02:45;;;;;;;3.10;1.90;;;1.20;99.90;;;;;;5071495;28;20054;-86
2024/01/07 11:05:42;;;;;;;0.00;0.00;;;1.20;99.90;;;;;;5098442;28;20531;-86
2024/01/07 11:08:23;;;;;;;0.00;0.00;;;1.30;99.90;;;;;;5092131;28;20048;-86
2024/01/07 11:10:55;;;;;;;0.00;0.00;;;1.20;99.90;;;;;;5091916;28;20047;-87
2024/01/07 11:13:37;;;;;;;0.03;0.03;;;1.20;99.90;;;;;;5089269;28;20097;-86
2024/01/07 11:16:04;;;;;;;1.25;0.32;;;1.20;99.90;;;;;;5068039;28;20054;-86
2024/01/07 11:18:33;;;;;;;0.00;0.00;;;1.40;99.90;;;;;;5069967;28;20092;-86
2024/01/07 11:21:03;;;;;;;0.00;0.00;;;1.30;99.90;;;;;;5100316;28;20097;-87
2024/01/07 11:23:40;;;;;;;0.00;0.00;;;1.30;99.90;;;;;;5091412;28;20116;-86
2024/01/07 11:26:06;;;;;;;0.00;0.00;;;1.30;99.90;;;;;;5099887;28;20117;-86
2024/01/07 11:28:52;;;;;;;0.00;0.00;;;1.40;99.90;;;;;;5064701;28;20135;-87
2024/01/07 11:31:20;;;;;;;0.00;0.00;;;1.40;99.90;;;;;;5064302;28;20582;-87
2024/01/07 11:33:48;;;;;;;0.20;0.20;;;1.30;99.90;;;;;;5082938;28;20384;-87
2024/01/07 11:36:15;;;;;;;0.00;0.00;;;1.20;99.90;;;;;;5091289;28;20053;-87
2024/01/07 11:38:50;;;;;;;0.17;0.17;;;1.00;99.90;;;;;;5064612;28;20059;-86
2024/01/07 11:41:17;;;;;;;0.00;0.00;;;0.80;99.90;;;;;;5091552;28;20128;-87
2024/01/07 11:43:57;;;;;;;0.33;0.33;;;0.60;99.90;;;;;;5096269;28;20047;-87
2024/01/07 11:46:23;;;;;;;0.00;0.00;;;0.50;99.90;;;;;;5067956;28;20052;-86
2024/01/07 11:48:50;;;;;;;0.00;0.00;;;0.40;99.90;;;;;;5079940;28;20055;-86
2024/01/07 11:51:16;;;;;;;0.80;0.25;;;0.30;99.90;;;;;;5090932;28;20495;-86
2024/01/07 11:53:45;;;;;;;0.00;0.00;;;0.30;99.90;;;;;;5064472;28;20089;-86
2024/01/07 11:56:12;;;;;;;0.00;0.00;;;0.40;99.90;;;;;;5091406;28;20146;-86
2024/01/07 11:58:38;;;;;;;0.10;0.10;;;0.40;99.90;;;;;;5066126;28;20194;-86
2024/01/07 12:01:04;;;;;;;0.00;0.00;;;0.30;1.00;;;;;;5070668;28;20562;-86
2024/01/07 12:03:29;;;;;;;0.08;0.08;;;0.40;1.00;;;;;;5063825;28;20060;-86
2024/01/07 12:05:55;;;;;;;0.00;0.00;;;0.40;1.00;;;;;;5076131;28;20615;-86
2024/01/07 12:08:20;;;;;;;0.05;0.05;;;0.40;1.00;;;;;;5093873;28;20197;-86
2024/01/07 12:10:47;;;;;;;0.10;0.10;;;0.40;1.00;;;;;;5092675;28;20047;-86
2024/01/07 12:13:13;;;;;;;0.20;0.20;;;0.40;1.00;;;;;;5090350;28;20047;-86
2024/01/07 12:15:39;;;;;;;0.00;0.00;;;0.40;1.00;;;;;;5090464;28;20444;-86
2024/01/07 12:18:05;;;;;;;0.00;0.00;;;0.50;1.00;;;;;;5067053;28;20040;-86
2024/01/07 12:20:31;;;;;;;0.13;0.13;;;0.60;1.00;;;;;;5052469;28;20058;-86
2024/01/07 12:22:57;;;;;;;0.27;0.27;;;0.80;1.00;;;;;;5064268;28;20350;-86
2024/01/07 12:25:26;;;;;;;0.00;0.00;;;0.90;1.00;;;;;;5090384;28;20047;-87
2024/01/07 12:27:52;;;;;;;0.00;0.00;;;1.10;1.00;;;;;;5090560;28;20178;-87
2024/01/07 12:30:23;;;;;;;0.05;0.05;;;1.30;1.00;;;;;;5066714;28;20485;-87
2024/01/07 12:32:52;;;;;;;0.10;0.10;;;1.20;99.90;;;;;;5093837;28;20118;-87
2024/01/07 12:35:17;;;;;;;3.65;0.98;;;1.30;1.00;;;;;;5067563;28;20514;-87
2024/01/07 12:37:44;;;;;;;0.22;0.22;;;1.40;1.00;;;;;;5070135;28;20118;-87
2024/01/07 12:40:11;;;;;;;0.63;0.63;;;1.50;99.90;;;;;;5090901;28;20036;-87
2024/01/07 12:42:44;;;;;;;2.85;1.75;;;1.50;99.90;;;;;;5090309;28;20498;-87
2024/01/07 12:45:11;;;;;;;0.30;0.30;;;1.50;99.90;;;;;;5063746;28;20044;-87
2024/01/07 12:47:37;;;;;;;0.13;0.13;;;1.60;99.90;;;;;;5042265;28;20289;-87
2024/01/07 12:50:03;;;;;;;0.00;0.00;;;1.80;99.90;;;;;;5086823;28;20501;-87